createdAt,value
2019-03-04T00:01:47.509Z,35.53
2019-03-04T00:04:19.554Z,37.23
2019-03-04T00:06:49.089Z,34.83
2019-03-04T00:09:18.586Z,34.23
2019-03-04T00:11:48.122Z,37.33
2019-03-04T00:14:17.620Z,34.60
2019-03-04T00:16:47.182Z,41.03
2019-03-04T00:19:16.670Z,30.10
2019-03-04T00:21:46.217Z,35.80
2019-03-04T00:24:17.117Z,38.83
2019-03-04T00:26:46.670Z,34.27
2019-03-04T00:29:16.369Z,31.83
2019-03-04T00:31:47.666Z,34.33
2019-03-04T00:34:17.180Z,35.27
2019-03-04T00:36:48.302Z,31.97
2019-03-04T00:39:17.837Z,44.80
2019-03-04T00:41:49.458Z,30.23
2019-03-04T00:44:21.934Z,32.13
2019-03-04T00:46:54.145Z,32.67
2019-03-04T00:49:24.810Z,36.93
2019-03-04T00:51:54.366Z,32.60
2019-03-04T00:54:25.442Z,30.30
2019-03-04T00:56:54.975Z,34.63
2019-03-04T00:59:25.031Z,31.80
2019-03-04T01:01:54.550Z,31.23
2019-03-04T01:04:27.019Z,32.93
2019-03-04T01:06:56.573Z,32.40
2019-03-04T01:09:26.062Z,32.17
2019-03-04T01:11:55.593Z,30.43
2019-03-04T01:14:25.118Z,34.33
2019-03-04T01:16:54.602Z,34.57
2019-03-04T01:19:24.146Z,29.43
2019-03-04T01:21:53.680Z,28.77
2019-03-04T01:24:23.218Z,36.13
2019-03-04T01:26:52.718Z,33.47
2019-03-04T01:29:22.257Z,30.87
2019-03-04T01:31:52.700Z,31.47
2019-03-04T01:34:24.892Z,30.53
2019-03-04T01:36:54.390Z,24.67
2019-03-04T01:39:26.881Z,37.00
2019-03-04T01:41:57.623Z,30.33
2019-03-04T01:44:27.162Z,39.27
2019-03-04T01:46:58.198Z,26.17
2019-03-04T01:49:27.761Z,34.00
2019-03-04T01:52:00.048Z,34.97
2019-03-04T01:54:36.632Z,26.93
2019-03-04T01:57:07.086Z,24.63
2019-03-04T01:59:36.621Z,28.13
2019-03-04T02:02:06.160Z,28.97
2019-03-04T02:04:35.657Z,29.20
2019-03-04T02:07:05.320Z,29.53
2019-03-04T02:09:34.832Z,30.83
2019-03-04T02:12:04.670Z,26.03
2019-03-04T02:14:34.163Z,24.47
2019-03-04T02:17:04.130Z,23.50
2019-03-04T02:19:33.634Z,33.27
2019-03-04T02:22:03.161Z,25.07
2019-03-04T02:24:33.778Z,23.50
2019-03-04T02:27:03.319Z,27.70
2019-03-04T02:29:32.801Z,24.43
2019-03-04T02:32:02.337Z,21.17
2019-03-04T02:34:31.837Z,24.30
2019-03-04T02:37:01.361Z,20.70
2019-03-04T02:39:30.844Z,22.77
2019-03-04T02:42:00.393Z,25.70
2019-03-04T02:44:30.709Z,24.83
2019-03-04T02:47:00.202Z,23.77
2019-03-04T02:49:29.741Z,25.43
2019-03-04T02:52:00.782Z,28.57
2019-03-04T02:54:30.326Z,26.60
2019-03-04T02:56:59.814Z,17.87
2019-03-04T02:59:29.362Z,27.50
2019-03-04T03:01:58.847Z,22.50
2019-03-04T03:04:28.405Z,25.83
2019-03-04T03:06:57.905Z,20.77
2019-03-04T03:09:27.432Z,21.33
2019-03-04T03:12:01.403Z,22.83
2019-03-04T03:14:30.954Z,25.13
2019-03-04T03:17:00.444Z,17.70
2019-03-04T03:19:29.975Z,23.13
2019-03-04T03:21:59.518Z,26.20
2019-03-04T03:24:29.051Z,22.97
2019-03-04T03:26:58.577Z,18.67
2019-03-04T03:29:28.066Z,25.97
2019-03-04T03:31:57.614Z,19.73
2019-03-04T03:34:27.100Z,22.13
2019-03-04T03:36:56.646Z,22.07
2019-03-04T03:39:26.144Z,23.33
2019-03-04T03:41:58.378Z,20.20
2019-03-04T03:44:27.878Z,24.80
2019-03-04T03:46:58.947Z,22.10
2019-03-04T03:49:28.431Z,23.17
2019-03-04T03:51:57.996Z,24.17
2019-03-04T03:54:27.499Z,19.73
2019-03-04T03:56:57.034Z,25.83
2019-03-04T03:59:29.274Z,22.33
2019-03-04T04:02:00.096Z,16.80
2019-03-04T04:04:29.618Z,17.30
2019-03-04T04:06:59.152Z,23.00
2019-03-04T04:09:28.686Z,20.57
2019-03-04T04:11:58.750Z,17.97
2019-03-04T04:14:29.287Z,19.23
2019-03-04T04:16:59.424Z,25.13
2019-03-04T04:19:28.954Z,18.70
2019-03-04T04:21:58.498Z,24.50
2019-03-04T04:24:34.791Z,22.27
2019-03-04T04:27:04.278Z,19.50
2019-03-04T04:29:35.483Z,22.03
2019-03-04T04:32:04.987Z,24.20
2019-03-04T04:34:35.509Z,18.80
2019-03-04T04:37:05.046Z,20.40
2019-03-04T04:39:34.533Z,18.00
2019-03-04T04:42:04.057Z,22.80
2019-03-04T04:44:33.722Z,16.27
2019-03-04T04:47:03.317Z,27.50
2019-03-04T04:49:32.806Z,14.03
2019-03-04T04:52:03.873Z,17.10
2019-03-04T04:54:36.221Z,24.40
2019-03-04T04:57:05.761Z,20.43
2019-03-04T04:59:35.245Z,17.87
2019-03-04T05:02:10.089Z,20.87
2019-03-04T05:04:39.817Z,16.47
2019-03-04T05:07:09.413Z,18.47
2019-03-04T05:09:38.901Z,18.80
2019-03-04T05:12:08.530Z,15.60
2019-03-04T05:14:38.058Z,19.57
2019-03-04T05:17:07.610Z,13.77
2019-03-04T05:19:37.139Z,17.57
2019-03-04T05:22:06.705Z,15.63
2019-03-04T05:24:36.241Z,14.50
2019-03-04T05:27:05.742Z,14.87
2019-03-04T05:29:35.293Z,19.17
2019-03-04T05:32:04.787Z,19.23
2019-03-04T05:34:34.334Z,17.23
2019-03-04T05:37:05.101Z,17.97
2019-03-04T05:39:35.718Z,18.10
2019-03-04T05:42:05.272Z,16.30
2019-03-04T05:44:34.823Z,14.00
2019-03-04T05:47:04.582Z,10.90
2019-03-04T05:49:34.114Z,10.73
2019-03-04T05:52:06.565Z,13.77
2019-03-04T05:54:36.052Z,12.43
2019-03-04T05:57:05.569Z,14.83
2019-03-04T05:59:35.074Z,13.17
2019-03-04T06:02:07.038Z,15.50
2019-03-04T06:04:36.536Z,12.37
2019-03-04T06:07:08.225Z,14.83
2019-03-04T06:09:37.717Z,14.87
2019-03-04T06:12:10.489Z,18.73
2019-03-04T06:14:39.986Z,12.53
2019-03-04T06:17:09.978Z,14.17
2019-03-04T06:19:39.471Z,11.77
2019-03-04T06:22:09.008Z,14.67
2019-03-04T06:24:39.310Z,15.00
2019-03-04T06:27:08.846Z,17.07
2019-03-04T06:29:39.341Z,12.20
2019-03-04T06:32:08.833Z,17.90
2019-03-04T06:34:38.361Z,13.37
2019-03-04T06:37:07.853Z,14.27
2019-03-04T06:39:37.385Z,11.20
2019-03-04T06:42:08.162Z,11.23
2019-03-04T06:44:37.725Z,18.67
2019-03-04T06:47:07.398Z,18.87
2019-03-04T06:49:36.941Z,17.97
2019-03-04T06:52:06.550Z,15.77
2019-03-04T06:54:47.861Z,16.07
2019-03-04T06:57:17.567Z,15.50
2019-03-04T07:00:07.230Z,16.97
2019-03-04T07:02:44.910Z,14.30
2019-03-04T07:05:45.653Z,13.53
2019-03-04T07:08:35.837Z,10.63
2019-03-04T07:11:05.918Z,16.00
2019-03-04T07:16:38.718Z,12.27
2019-03-04T07:19:08.248Z,9.57
2019-03-04T07:21:37.777Z,13.80
2019-03-04T07:24:07.266Z,9.77
2019-03-04T07:26:36.814Z,11.17
2019-03-04T07:29:06.458Z,11.73
2019-03-04T07:31:35.996Z,10.10
2019-03-04T07:34:05.526Z,18.67
2019-03-04T07:36:35.058Z,15.20
2019-03-04T07:39:07.163Z,14.60
2019-03-04T07:41:37.281Z,9.83
2019-03-04T07:44:06.890Z,15.70
2019-03-04T07:46:36.389Z,15.43
2019-03-04T07:49:06.006Z,18.03
2019-03-04T07:51:38.621Z,11.20
2019-03-04T07:54:08.266Z,12.47
2019-03-04T07:56:37.798Z,9.97
2019-03-04T07:59:07.342Z,9.47
2019-03-04T08:01:36.875Z,11.30
2019-03-04T08:04:06.353Z,11.97
2019-03-04T08:06:35.884Z,15.70
2019-03-04T08:09:14.126Z,11.67
2019-03-04T08:12:10.849Z,11.23
2019-03-04T08:14:41.354Z,15.13
2019-03-04T08:17:10.960Z,12.57
2019-03-04T08:19:40.449Z,11.70
2019-03-04T08:22:10.061Z,9.23
2019-03-04T08:24:39.550Z,14.27
2019-03-04T08:27:09.969Z,13.93
2019-03-04T08:29:39.465Z,13.13
2019-03-04T08:32:09.082Z,12.57
2019-03-04T08:34:38.646Z,12.63
2019-03-04T08:37:08.193Z,11.43
2019-03-04T08:39:37.720Z,12.00
2019-03-04T08:42:07.250Z,8.40
2019-03-04T08:44:36.801Z,13.33
2019-03-04T08:47:06.305Z,11.53
2019-03-04T08:49:35.841Z,13.13
2019-03-04T08:52:05.716Z,15.23
2019-03-04T08:54:35.261Z,17.17
2019-03-04T08:57:04.766Z,17.77
2019-03-04T08:59:34.300Z,13.47
2019-03-04T09:02:04.386Z,13.73
2019-03-04T09:04:33.886Z,11.77
2019-03-04T09:07:04.101Z,10.83
2019-03-04T09:09:34.102Z,10.13
2019-03-04T09:12:03.715Z,13.63
2019-03-04T09:14:33.569Z,12.93
2019-03-04T09:17:03.118Z,11.23
2019-03-04T09:19:32.628Z,14.00
2019-03-04T09:22:02.158Z,11.40
2019-03-04T09:24:32.426Z,10.17
2019-03-04T09:27:01.953Z,11.70
2019-03-04T09:29:31.496Z,13.60
2019-03-04T09:32:01.139Z,11.57
2019-03-04T09:34:30.625Z,11.37
2019-03-04T09:37:00.162Z,9.80
2019-03-04T09:39:29.653Z,11.20
2019-03-04T09:42:00.845Z,14.10
2019-03-04T09:44:30.343Z,17.27
2019-03-04T09:46:59.879Z,10.87
2019-03-04T09:49:29.407Z,11.23
2019-03-04T09:51:58.965Z,16.37
2019-03-04T09:54:28.514Z,20.07
2019-03-04T09:56:57.994Z,19.23
2019-03-04T09:59:27.534Z,16.23
2019-03-04T10:01:57.265Z,22.20
2019-03-04T10:04:33.287Z,12.47
2019-03-04T10:07:11.458Z,11.97
2019-03-04T10:09:50.047Z,21.43
2019-03-04T10:12:25.280Z,14.23
2019-03-04T10:15:26.643Z,13.33
2019-03-04T10:18:21.349Z,13.07
2019-03-04T10:21:05.989Z,14.00
2019-03-04T10:23:42.589Z,12.07
2019-03-04T10:26:28.132Z,16.93
2019-03-04T10:29:09.215Z,14.10
2019-03-04T10:31:58.381Z,13.77
2019-03-04T10:34:46.178Z,14.03
2019-03-04T10:37:41.194Z,11.37
2019-03-04T10:40:25.735Z,13.13
2019-03-04T10:43:13.105Z,12.17
2019-03-04T10:46:06.353Z,12.77
2019-03-04T10:48:36.242Z,13.20
2019-03-04T10:51:05.742Z,14.60
2019-03-04T10:53:35.342Z,13.17
2019-03-04T10:56:04.986Z,10.60
2019-03-04T10:58:34.586Z,13.63
2019-03-04T11:01:04.768Z,15.40
2019-03-04T11:03:34.331Z,14.57
2019-03-04T11:06:03.857Z,14.53
2019-03-04T11:08:33.494Z,13.30
2019-03-04T11:11:03.189Z,16.83
2019-03-04T11:13:32.759Z,10.00
2019-03-04T11:16:02.310Z,11.97
2019-03-04T11:18:31.874Z,10.37
2019-03-04T11:21:02.396Z,11.80
2019-03-04T11:23:31.950Z,10.27
2019-03-04T11:26:01.581Z,15.30
2019-03-04T11:28:31.145Z,12.57
2019-03-04T11:31:00.643Z,13.30
2019-03-04T11:33:30.173Z,12.63
2019-03-04T11:36:02.746Z,14.27
2019-03-04T11:38:42.909Z,14.43
2019-03-04T11:41:18.321Z,9.27
2019-03-04T11:43:47.814Z,12.20
2019-03-04T11:46:20.492Z,11.17
2019-03-04T11:48:50.054Z,12.60
2019-03-04T11:51:21.141Z,10.60
2019-03-04T11:53:50.772Z,9.30
2019-03-04T11:56:20.411Z,13.77
2019-03-04T11:58:49.972Z,14.10
2019-03-04T12:01:30.405Z,13.87
2019-03-04T12:04:00.705Z,14.43
2019-03-04T12:06:30.234Z,10.93
2019-03-04T12:08:59.818Z,10.23
2019-03-04T12:11:37.923Z,11.23
2019-03-04T12:14:00.549Z,14.10
2019-03-04T12:16:30.102Z,12.63
2019-03-04T12:19:00.711Z,10.80
2019-03-04T12:21:30.277Z,13.97
2019-03-04T12:24:00.275Z,13.73
2019-03-04T12:26:31.142Z,13.63
2019-03-04T12:29:00.702Z,16.83
2019-03-04T12:31:31.855Z,13.23
2019-03-04T12:34:01.438Z,14.97
2019-03-04T12:36:32.295Z,13.80
2019-03-04T12:39:01.930Z,12.97
2019-03-04T12:41:35.482Z,12.43
2019-03-04T12:52:29.268Z,11.30
2019-03-04T12:55:01.371Z,13.07
2019-03-04T12:57:32.137Z,7.47
2019-03-04T13:00:05.994Z,13.03
2019-03-04T13:02:36.569Z,12.33
2019-03-04T13:05:10.143Z,12.17
2019-03-04T13:07:39.629Z,13.13
2019-03-04T13:10:12.145Z,10.77
2019-03-04T13:12:45.059Z,13.27
2019-03-04T13:15:17.872Z,10.30
2019-03-04T13:17:47.825Z,9.67
2019-03-04T13:20:19.876Z,8.23
2019-03-04T13:22:49.438Z,11.80
2019-03-04T13:25:18.965Z,10.23
2019-03-04T13:27:48.668Z,11.47
2019-03-04T13:30:21.245Z,12.43
2019-03-04T13:32:50.782Z,11.67
2019-03-04T13:35:28.354Z,9.63
2019-03-04T13:37:57.894Z,13.13
2019-03-04T13:40:29.897Z,11.50
2019-03-04T13:42:59.522Z,12.53
2019-03-04T13:45:29.854Z,10.63
2019-03-04T13:47:59.401Z,9.67
2019-03-04T13:50:30.766Z,8.57
2019-03-04T13:53:00.272Z,9.27
2019-03-04T13:55:29.874Z,11.33
2019-03-04T13:57:59.376Z,14.33
2019-03-04T14:00:34.118Z,10.87
2019-03-04T14:03:03.622Z,11.87
2019-03-04T14:05:33.199Z,14.27
2019-03-04T14:08:04.746Z,12.53
2019-03-04T14:10:45.059Z,14.13
2019-03-04T14:13:14.555Z,12.53
2019-03-04T14:15:52.063Z,10.53
2019-03-04T14:18:21.550Z,14.97
2019-03-04T14:20:51.091Z,16.03
2019-03-04T14:23:23.866Z,37.90
2019-03-04T14:25:53.076Z,18.90
2019-03-04T14:28:22.534Z,12.93
2019-03-04T14:30:53.433Z,16.90
2019-03-04T14:33:22.851Z,18.33
2019-03-04T14:35:53.841Z,13.23
2019-03-04T14:38:23.379Z,17.10
2019-03-04T14:40:52.918Z,15.93
2019-03-04T14:43:23.692Z,18.33
2019-03-04T14:45:54.378Z,14.80
2019-03-04T14:48:24.334Z,15.93
2019-03-04T14:50:54.001Z,19.63
2019-03-04T14:53:23.530Z,14.67
2019-03-04T14:55:53.018Z,15.83
2019-03-04T14:58:22.233Z,19.50
2019-03-04T15:00:53.170Z,23.37
2019-03-04T15:03:23.841Z,24.40
2019-03-04T15:05:55.661Z,17.03
2019-03-04T15:08:25.528Z,31.80
2019-03-04T15:10:55.026Z,11.43
2019-03-04T15:13:24.953Z,19.53
2019-03-04T15:16:01.393Z,21.20
2019-03-04T15:18:29.575Z,19.20
2019-03-04T15:20:59.079Z,20.73
2019-03-04T15:23:28.623Z,14.70
2019-03-04T15:25:58.418Z,16.87
2019-03-04T15:28:27.986Z,14.30
2019-03-04T15:31:04.300Z,12.30
2019-03-04T15:33:34.652Z,10.27
2019-03-04T15:36:05.122Z,10.60
2019-03-04T15:38:35.006Z,17.80
2019-03-04T15:41:04.711Z,11.23
2019-03-04T15:43:35.495Z,8.93
2019-03-04T15:46:05.367Z,13.03
2019-03-04T15:48:36.050Z,6.57
2019-03-04T15:51:05.646Z,8.27
2019-03-04T15:53:35.922Z,12.17
2019-03-04T15:56:05.546Z,9.97
2019-03-04T15:58:35.203Z,6.63
2019-03-04T16:01:06.760Z,7.27
2019-03-04T16:03:36.796Z,10.57
2019-03-04T16:06:06.434Z,8.97
2019-03-04T16:08:37.887Z,7.73
2019-03-04T16:11:07.609Z,8.87
2019-03-04T16:13:37.260Z,7.93
2019-03-04T16:16:06.821Z,5.23
2019-03-04T16:18:38.054Z,8.30
2019-03-04T16:21:07.550Z,5.57
2019-03-04T16:23:37.080Z,11.27
2019-03-04T16:28:56.189Z,9.53
2019-03-04T16:31:25.738Z,9.67
2019-03-04T16:33:55.288Z,11.10
2019-03-04T16:36:27.515Z,16.93
2019-03-04T16:38:57.322Z,9.20
2019-03-04T16:41:26.855Z,14.47
2019-03-04T16:43:56.351Z,10.60
2019-03-04T16:46:25.882Z,6.40
2019-03-04T16:48:55.370Z,8.57
2019-03-04T16:51:24.906Z,12.67
2019-03-04T16:53:55.970Z,11.63
2019-03-04T16:56:25.469Z,29.33
2019-03-04T16:58:54.993Z,12.53
2019-03-04T17:01:24.486Z,12.57
2019-03-04T17:03:54.026Z,14.47
2019-03-04T17:06:23.518Z,18.30
2019-03-04T17:08:53.070Z,13.63
2019-03-04T17:11:22.631Z,8.37
2019-03-04T17:13:52.329Z,6.93
2019-03-04T17:16:21.835Z,9.80
2019-03-04T17:18:51.588Z,7.03
2019-03-04T17:21:21.134Z,8.77
2019-03-04T17:23:51.266Z,9.50
2019-03-04T17:26:21.379Z,8.53
2019-03-04T17:28:50.927Z,10.10
2019-03-04T17:31:20.462Z,20.50
2019-03-04T17:33:53.059Z,10.57
2019-03-04T17:36:22.670Z,24.23
2019-03-04T17:38:53.221Z,17.63
2019-03-04T17:41:22.768Z,16.33
2019-03-04T17:43:52.313Z,6.70
2019-03-04T17:46:22.018Z,14.80
2019-03-04T17:48:51.569Z,10.87
2019-03-04T17:51:21.122Z,15.53
2019-03-04T17:53:50.661Z,26.27
2019-03-04T17:56:20.222Z,18.50
2019-03-04T17:58:49.745Z,20.83
2019-03-04T18:01:19.235Z,16.17
2019-03-04T18:03:48.842Z,62.83
2019-03-04T18:06:18.409Z,76.17
2019-03-04T18:08:49.666Z,76.73
2019-03-04T18:11:19.160Z,97.63
2019-03-04T18:13:49.051Z,25.73
2019-03-04T18:16:18.543Z,44.07
2019-03-04T18:18:48.118Z,28.70
2019-03-04T18:21:17.841Z,22.20
2019-03-04T18:23:47.382Z,50.97
2019-03-04T18:26:26.790Z,33.13
2019-03-04T18:29:17.240Z,23.90
2019-03-04T18:32:01.736Z,17.47
2019-03-04T18:34:43.240Z,20.20
2019-03-04T18:37:48.770Z,11.47
2019-03-04T18:40:33.815Z,15.83
2019-03-04T18:43:15.143Z,15.27
2019-03-04T18:46:07.910Z,14.77
2019-03-04T18:48:54.553Z,20.83
2019-03-04T18:51:24.270Z,18.47
2019-03-04T18:53:55.337Z,17.73
2019-03-04T18:56:24.896Z,24.07
2019-03-04T18:58:54.430Z,15.47
2019-03-04T19:01:24.998Z,16.47
2019-03-04T19:03:56.191Z,19.73
2019-03-04T19:06:26.761Z,38.10
2019-03-04T19:08:56.438Z,48.67
2019-03-04T19:11:26.012Z,74.07
2019-03-04T19:13:55.567Z,20.37
2019-03-04T19:16:44.454Z,85.23
2019-03-04T19:19:13.962Z,54.03
2019-03-04T19:21:43.594Z,31.40
2019-03-04T19:24:13.319Z,39.33
2019-03-04T19:26:42.929Z,24.50
2019-03-04T19:29:12.506Z,52.03
2019-03-04T19:31:42.042Z,17.73
2019-03-04T19:34:12.808Z,28.87
2019-03-04T19:36:42.345Z,31.47
2019-03-04T19:39:12.060Z,23.87
2019-03-04T19:41:42.271Z,22.63
2019-03-04T19:44:11.942Z,26.77
2019-03-04T19:46:41.993Z,20.37
2019-03-04T19:49:18.777Z,12.03
2019-03-04T19:51:48.313Z,15.13
2019-03-04T19:54:17.801Z,11.87
2019-03-04T19:56:47.341Z,12.40
2019-03-04T19:59:16.897Z,9.03
2019-03-04T20:01:46.724Z,14.43
2019-03-04T20:04:16.371Z,16.23
2019-03-04T20:06:45.982Z,24.30
2019-03-04T20:09:15.853Z,14.63
2019-03-04T20:11:48.743Z,16.67
2019-03-04T20:14:18.373Z,28.03
2019-03-04T20:16:49.431Z,13.47
2019-03-04T20:19:27.926Z,10.30
2019-03-04T20:21:57.574Z,5.67
2019-03-04T20:24:27.062Z,8.03
2019-03-04T20:26:57.295Z,2.00
2019-03-04T20:29:26.847Z,2.67
2019-03-04T20:31:56.440Z,1.83
2019-03-04T20:34:28.117Z,2.00
2019-03-04T20:36:57.809Z,2.70
2019-03-04T20:39:27.286Z,5.77
2019-03-04T20:41:56.882Z,7.13
2019-03-04T20:44:26.430Z,2.37
2019-03-04T20:46:55.958Z,3.03
2019-03-04T20:49:26.518Z,3.40
2019-03-04T20:51:56.038Z,4.50
2019-03-04T20:54:25.605Z,4.43
2019-03-04T20:56:55.306Z,6.23
2019-03-04T20:59:24.854Z,2.03
2019-03-04T21:01:54.374Z,3.90
2019-03-04T21:04:23.918Z,12.83
2019-03-04T21:06:53.579Z,7.97
2019-03-04T21:09:23.270Z,5.77
2019-03-04T21:11:52.935Z,26.53
2019-03-04T21:14:22.482Z,6.13
2019-03-04T21:16:52.273Z,4.80
2019-03-04T21:19:21.966Z,8.03
2019-03-04T21:21:53.241Z,7.77
2019-03-04T21:24:22.857Z,3.97
2019-03-04T21:26:53.293Z,7.80
2019-03-04T21:29:30.515Z,8.13
2019-03-04T21:32:18.182Z,8.00
2019-03-04T21:35:19.189Z,7.50
2019-03-04T21:37:49.734Z,9.63
2019-03-04T21:40:28.095Z,6.13
2019-03-04T21:43:01.683Z,5.40
2019-03-04T21:45:53.489Z,5.77
2019-03-04T21:48:47.246Z,7.27
2019-03-04T21:51:38.492Z,8.00
2019-03-04T21:54:09.371Z,6.83
2019-03-04T21:56:58.773Z,6.43
2019-03-04T21:59:28.595Z,5.73
2019-03-04T22:02:09.917Z,7.13
2019-03-04T22:04:39.950Z,10.60
2019-03-04T22:07:09.669Z,7.87
2019-03-04T22:09:40.395Z,5.13
2019-03-04T22:12:14.525Z,7.40
2019-03-04T22:14:44.173Z,8.50
2019-03-04T22:17:13.870Z,8.67
2019-03-04T22:19:43.565Z,8.60
2019-03-04T22:22:13.110Z,7.67
2019-03-04T22:24:42.686Z,11.50
2019-03-04T22:27:12.161Z,8.60
2019-03-04T22:29:41.673Z,11.00
2019-03-04T22:32:11.157Z,7.67
2019-03-04T22:34:40.913Z,8.27
2019-03-04T22:37:10.433Z,9.77
2019-03-04T22:39:40.087Z,7.87
2019-03-04T22:42:09.555Z,8.67
2019-03-04T22:44:39.076Z,9.00
2019-03-04T22:47:08.581Z,11.20
2019-03-04T22:49:39.074Z,8.27
2019-03-04T22:52:08.645Z,8.07
2019-03-04T22:54:38.241Z,8.20
2019-03-04T22:57:07.698Z,8.30
2019-03-04T22:59:37.295Z,7.47
2019-03-04T23:02:07.050Z,7.97
2019-03-04T23:04:36.823Z,9.70
2019-03-04T23:07:09.174Z,7.27
2019-03-04T23:09:51.515Z,11.40
2019-03-04T23:12:29.605Z,9.83
2019-03-04T23:14:59.133Z,9.10
2019-03-04T23:17:28.622Z,10.73
2019-03-04T23:19:58.153Z,8.60
2019-03-04T23:22:27.746Z,10.50
2019-03-04T23:24:58.245Z,7.27
2019-03-04T23:27:27.751Z,8.03
2019-03-04T23:29:58.266Z,9.17
2019-03-04T23:32:27.743Z,7.27
2019-03-04T23:34:57.264Z,7.93
2019-03-04T23:37:26.793Z,9.93
2019-03-04T23:39:56.274Z,8.20
2019-03-04T23:42:25.793Z,9.90
2019-03-04T23:44:56.251Z,8.97
2019-03-04T23:47:26.840Z,6.97
2019-03-04T23:50:20.475Z,9.20
2019-03-04T23:52:50.055Z,9.97
2019-03-04T23:55:19.876Z,13.03
2019-03-04T23:57:49.839Z,11.90
